createdAt,value
2023-02-06T00:01:51.145Z,-2.35
2023-02-06T00:04:21.351Z,-2.42
2023-02-06T00:06:50.283Z,-2.43
2023-02-06T00:09:18.989Z,-2.37
2023-02-06T00:11:45.972Z,-2.24
2023-02-06T00:14:12.996Z,-2.26
2023-02-06T00:16:42.069Z,-2.29
2023-02-06T00:19:08.888Z,-2.32
2023-02-06T00:21:35.628Z,-2.28
2023-02-06T00:24:03.649Z,-2.28
2023-02-06T00:26:31.654Z,-2.37
2023-02-06T00:29:00.831Z,-2.21
2023-02-06T00:31:27.798Z,-2.00
2023-02-06T00:33:54.532Z,-1.88
2023-02-06T00:36:21.617Z,-1.97
2023-02-06T00:38:50.745Z,-2.13
2023-02-06T00:41:17.536Z,-2.17
2023-02-06T00:43:44.426Z,-2.24
2023-02-06T00:46:11.751Z,-2.25
2023-02-06T00:48:38.733Z,-2.38
2023-02-06T00:51:06.114Z,-2.45
2023-02-06T00:53:32.987Z,-2.49
2023-02-06T00:55:59.743Z,-2.48
2023-02-06T00:58:26.403Z,-2.39
2023-02-06T01:00:53.844Z,-2.38
2023-02-06T01:03:23.651Z,-2.34
2023-02-06T01:05:50.826Z,-2.39
2023-02-06T01:08:23.270Z,-2.39
2023-02-06T01:10:50.076Z,-2.36
2023-02-06T01:13:16.830Z,-2.47
2023-02-06T01:15:43.995Z,-2.58
2023-02-06T01:18:13.415Z,-2.60
2023-02-06T01:20:45.777Z,-2.74
2023-02-06T01:23:12.456Z,-2.68
2023-02-06T01:25:46.586Z,-2.61
2023-02-06T01:28:13.365Z,-2.57
2023-02-06T01:30:40.178Z,-2.64
2023-02-06T01:33:08.942Z,-2.76
2023-02-06T01:35:41.979Z,-2.92
2023-02-06T01:38:11.402Z,-2.96
2023-02-06T01:40:38.069Z,-2.97
2023-02-06T01:43:17.779Z,-2.97
2023-02-06T01:45:47.113Z,-2.94
2023-02-06T01:48:30.399Z,-2.88
2023-02-06T01:51:00.103Z,-2.82
2023-02-06T01:53:30.258Z,-2.70
2023-02-06T01:56:04.024Z,-2.64
2023-02-06T01:58:59.838Z,-2.64
2023-02-06T02:01:28.919Z,-2.74
2023-02-06T02:04:11.036Z,-2.90
2023-02-06T02:06:42.096Z,-3.08
2023-02-06T02:09:09.290Z,-3.09
2023-02-06T02:11:41.924Z,-3.08
2023-02-06T02:14:15.367Z,-3.23
2023-02-06T02:17:45.791Z,-3.27
2023-02-06T02:20:45.357Z,-3.40
2023-02-06T02:23:45.125Z,-3.39
2023-02-06T02:26:46.949Z,-3.48
2023-02-06T02:30:20.362Z,-3.20
2023-02-06T02:33:28.247Z,-3.24
2023-02-06T02:36:16.200Z,-3.29
2023-02-06T02:39:33.508Z,-3.08
2023-02-06T02:42:26.492Z,-3.08
2023-02-06T02:45:12.172Z,-3.26
2023-02-06T02:48:08.550Z,-3.35
2023-02-06T02:50:38.927Z,-3.52
2023-02-06T02:53:07.026Z,-3.14
2023-02-06T02:55:36.757Z,-2.84
2023-02-06T02:58:18.966Z,-2.68
2023-02-06T03:01:08.104Z,-2.62
2023-02-06T03:03:42.038Z,-2.55
2023-02-06T03:07:02.139Z,-2.53
2023-02-06T03:10:03.083Z,-2.61
2023-02-06T03:12:59.935Z,-2.57
2023-02-06T03:15:53.729Z,-2.60
2023-02-06T03:18:54.238Z,-2.52
2023-02-06T03:21:29.019Z,-2.75
2023-02-06T03:24:08.049Z,-2.67
2023-02-06T03:26:37.866Z,-2.60
2023-02-06T03:29:12.630Z,-2.61
2023-02-06T03:31:57.422Z,-2.61
2023-02-06T03:35:25.680Z,-2.54
2023-02-06T03:37:53.700Z,-2.52
2023-02-06T03:40:35.161Z,-2.53
2023-02-06T03:43:06.027Z,-2.53
2023-02-06T03:45:48.611Z,-2.56
2023-02-06T03:48:31.763Z,-2.60
2023-02-06T03:51:08.793Z,-2.67
2023-02-06T03:53:41.382Z,-2.73
2023-02-06T03:56:23.322Z,-2.76
2023-02-06T03:58:53.401Z,-2.78
2023-02-06T04:01:22.699Z,-2.66
2023-02-06T04:03:54.816Z,-2.65
2023-02-06T04:06:21.911Z,-2.67
2023-02-06T04:08:48.857Z,-2.68
2023-02-06T04:11:15.658Z,-2.66
2023-02-06T04:13:46.838Z,-2.53
2023-02-06T04:16:14.925Z,-2.45
2023-02-06T04:18:44.679Z,-2.40
2023-02-06T04:21:11.658Z,-2.36
2023-02-06T04:23:38.317Z,-2.36
2023-02-06T04:26:04.953Z,-2.37
2023-02-06T04:28:31.699Z,-2.45
2023-02-06T04:31:00.256Z,-2.51
2023-02-06T04:33:29.983Z,-2.62
2023-02-06T04:35:56.903Z,-2.65
2023-02-06T04:38:29.417Z,-2.67
2023-02-06T04:41:02.297Z,-2.74
2023-02-06T04:43:29.169Z,-2.57
2023-02-06T04:45:58.901Z,-2.56
2023-02-06T04:48:29.149Z,-2.54
2023-02-06T04:50:55.873Z,-2.52
2023-02-06T04:53:28.800Z,-2.44
2023-02-06T04:56:07.962Z,-2.40
2023-02-06T04:58:38.117Z,-2.31
2023-02-06T05:01:06.287Z,-2.18
2023-02-06T05:03:33.397Z,-2.08
2023-02-06T05:06:02.893Z,-1.96
2023-02-06T05:08:30.823Z,-1.87
2023-02-06T05:10:57.534Z,-1.88
2023-02-06T05:13:30.625Z,-1.92
2023-02-06T05:16:01.409Z,-1.94
2023-02-06T05:18:31.513Z,-1.75
2023-02-06T05:20:58.422Z,-1.63
2023-02-06T05:23:25.678Z,-1.60
2023-02-06T05:25:55.695Z,-1.53
2023-02-06T05:28:22.543Z,-1.46
2023-02-06T05:30:52.575Z,-1.38
2023-02-06T05:33:22.467Z,-1.32
2023-02-06T05:35:52.301Z,-1.26
2023-02-06T05:38:22.015Z,-1.21
2023-02-06T05:40:52.006Z,-1.15
2023-02-06T05:43:18.647Z,-1.07
2023-02-06T05:45:55.440Z,-1.01
2023-02-06T05:48:22.325Z,-0.94
2023-02-06T05:50:54.792Z,-0.94
2023-02-06T05:53:30.907Z,-0.92
2023-02-06T05:55:57.972Z,-0.90
2023-02-06T05:58:24.864Z,-0.87
2023-02-06T06:00:52.169Z,-0.83
2023-02-06T06:03:24.770Z,-0.83
2023-02-06T06:05:53.751Z,-0.76
2023-02-06T06:08:21.457Z,-0.68
2023-02-06T06:10:53.149Z,-0.66
2023-02-06T06:13:19.916Z,-0.66
2023-02-06T06:15:52.955Z,-0.65
2023-02-06T06:18:23.729Z,-0.66
2023-02-06T06:20:54.105Z,-0.66
2023-02-06T06:23:21.316Z,-0.66
2023-02-06T06:25:50.979Z,-0.62
2023-02-06T06:28:17.720Z,-0.63
2023-02-06T06:30:46.258Z,-0.58
2023-02-06T06:33:15.377Z,-0.54
2023-02-06T06:35:44.462Z,-0.57
2023-02-06T06:38:11.306Z,-0.57
2023-02-06T06:40:41.820Z,-0.56
2023-02-06T06:43:13.232Z,-0.54
2023-02-06T06:45:42.428Z,-0.53
2023-02-06T06:48:09.322Z,-0.47
2023-02-06T06:50:41.735Z,-0.45
2023-02-06T06:53:08.909Z,-0.42
2023-02-06T06:55:38.694Z,-0.36
2023-02-06T06:58:05.402Z,-0.31
2023-02-06T07:00:32.175Z,-0.28
2023-02-06T07:02:58.890Z,-0.25
2023-02-06T07:05:31.130Z,-0.28
2023-02-06T07:07:57.961Z,-0.28
2023-02-06T07:10:24.968Z,-0.31
2023-02-06T07:12:53.556Z,-0.34
2023-02-06T07:15:21.048Z,-0.34
2023-02-06T07:17:51.085Z,-0.31
2023-02-06T07:20:18.098Z,-0.24
2023-02-06T07:22:47.624Z,-0.22
2023-02-06T07:25:14.459Z,-0.23
2023-02-06T07:27:44.404Z,-0.16
2023-02-06T07:30:12.425Z,-0.11
2023-02-06T07:32:41.970Z,-0.04
2023-02-06T07:35:09.153Z,0.05
2023-02-06T07:37:35.970Z,0.09
2023-02-06T07:40:06.091Z,0.14
2023-02-06T07:42:36.261Z,0.15
2023-02-06T07:45:03.324Z,0.20
2023-02-06T07:47:32.563Z,0.27
2023-02-06T07:50:02.239Z,0.35
2023-02-06T07:52:32.236Z,0.41
2023-02-06T07:54:58.860Z,0.45
2023-02-06T07:57:25.835Z,0.51
2023-02-06T07:59:52.529Z,0.53
2023-02-06T08:02:19.269Z,0.41
2023-02-06T08:04:53.779Z,0.28
2023-02-06T08:07:20.599Z,0.24
2023-02-06T08:09:47.620Z,0.23
2023-02-06T08:12:14.382Z,0.20
2023-02-06T08:14:46.005Z,0.18
2023-02-06T08:17:13.839Z,0.22
2023-02-06T08:19:43.522Z,0.28
2023-02-06T08:22:10.227Z,0.41
2023-02-06T08:24:43.177Z,0.61
2023-02-06T08:27:11.063Z,0.85
2023-02-06T08:29:44.357Z,1.12
2023-02-06T09:15:59.558Z,3.50
2023-02-06T09:18:26.896Z,3.50
2023-02-06T09:21:07.434Z,3.46
2023-02-06T09:23:37.862Z,3.36
2023-02-06T09:26:08.434Z,3.32
2023-02-06T09:28:38.853Z,3.46
2023-02-06T09:31:11.650Z,3.58
2023-02-06T09:33:43.302Z,3.59
2023-02-06T09:36:16.447Z,3.59
2023-02-06T09:38:49.767Z,3.47
2023-02-06T09:41:37.688Z,3.51
2023-02-06T09:44:10.567Z,3.55
2023-02-06T09:46:51.376Z,3.66
2023-02-06T09:50:02.601Z,3.62
2023-02-06T09:52:52.219Z,3.73
2023-02-06T09:56:41.998Z,3.65
2023-02-06T09:59:45.065Z,3.72
2023-02-06T10:02:56.529Z,3.88
2023-02-06T10:05:57.107Z,4.13
2023-02-06T10:08:50.602Z,4.20
2023-02-06T10:12:11.033Z,4.28
2023-02-06T10:14:55.548Z,4.93
2023-02-06T10:17:43.467Z,5.44
2023-02-06T10:20:53.495Z,5.93
2023-02-06T10:23:30.090Z,6.55
2023-02-06T10:26:18.267Z,7.10
2023-02-06T10:28:53.516Z,7.46
2023-02-06T10:31:59.215Z,7.26
2023-02-06T10:35:20.370Z,6.44
2023-02-06T10:38:48.930Z,5.59
2023-02-06T10:42:06.652Z,5.30
2023-02-06T10:45:19.026Z,5.55
2023-02-06T10:48:18.813Z,5.88
2023-02-06T10:51:32.065Z,6.09
2023-02-06T10:54:06.397Z,6.24
2023-02-06T10:56:44.235Z,6.33
2023-02-06T12:06:43.408Z,9.30
2023-02-06T12:09:13.150Z,9.46
2023-02-06T12:12:16.520Z,8.82
2023-02-06T12:15:45.484Z,8.85
2023-02-06T12:18:32.287Z,8.99
2023-02-06T12:21:10.255Z,8.39
2023-02-06T12:23:49.763Z,8.24
2023-02-06T12:26:23.800Z,8.20
2023-02-06T12:29:27.338Z,8.18
2023-02-06T12:32:09.885Z,8.25
2023-02-06T12:35:00.626Z,8.18
2023-02-06T12:37:50.114Z,7.44
2023-02-06T12:41:09.019Z,6.90
2023-02-06T12:43:45.865Z,6.73
2023-02-06T12:46:25.644Z,6.69
2023-02-06T12:49:30.985Z,6.63
2023-02-06T12:52:27.174Z,6.77
2023-02-06T12:55:35.703Z,7.55
2023-02-06T12:58:04.738Z,7.73
2023-02-06T13:00:52.035Z,8.04
2023-02-06T13:03:59.293Z,8.60
2023-02-06T13:06:43.938Z,8.73
2023-02-06T13:09:46.931Z,8.72
2023-02-06T13:12:24.917Z,8.61
2023-02-06T13:15:00.897Z,8.20
2023-02-06T13:17:57.783Z,8.64
2023-02-06T13:20:28.419Z,8.78
2023-02-06T13:23:15.543Z,8.96
2023-02-06T13:25:54.103Z,8.69
2023-02-06T13:28:21.590Z,8.65
2023-02-06T13:31:20.651Z,8.72
2023-02-06T13:33:58.633Z,8.92
2023-02-06T13:36:52.657Z,9.08
2023-02-06T13:39:33.171Z,9.21
2023-02-06T13:42:41.297Z,9.60
2023-02-06T13:45:45.936Z,10.11
2023-02-06T13:49:11.789Z,10.48
2023-02-06T13:52:17.024Z,10.79
2023-02-06T13:55:08.163Z,10.50
2023-02-06T13:58:34.149Z,10.63
2023-02-06T14:01:11.228Z,10.61
2023-02-06T14:03:42.945Z,10.50
2023-02-06T14:07:21.970Z,10.16
2023-02-06T14:10:57.498Z,9.88
2023-02-06T14:13:43.800Z,9.44
2023-02-06T14:17:02.469Z,8.96
2023-02-06T14:19:56.752Z,7.74
2023-02-06T14:23:02.881Z,6.98
2023-02-06T14:26:23.705Z,7.20
2023-02-06T14:29:44.821Z,7.66
2023-02-06T14:32:54.707Z,7.42
2023-02-06T15:00:21.113Z,6.97
2023-02-06T15:26:24.024Z,2.24
2023-02-06T15:29:04.304Z,1.88
2023-02-06T15:31:32.159Z,1.67
2023-02-06T15:34:02.477Z,1.53
2023-02-06T15:36:38.784Z,1.39
2023-02-06T15:39:14.578Z,1.22
2023-02-06T15:41:52.567Z,1.02
2023-02-06T15:44:22.227Z,0.92
2023-02-06T15:46:57.904Z,0.77
2023-02-06T15:49:45.813Z,0.62
2023-02-06T15:52:33.294Z,0.47
2023-02-06T15:55:03.547Z,0.29
2023-02-06T15:57:57.367Z,0.08
2023-02-06T16:00:36.877Z,-0.13
2023-02-06T16:03:17.252Z,-0.30
2023-02-06T16:05:48.990Z,-0.47
2023-02-06T16:08:27.967Z,-0.70
2023-02-06T16:11:04.939Z,-0.88
2023-02-06T16:13:33.303Z,-0.99
2023-02-06T16:16:28.137Z,-1.15
2023-02-06T16:19:56.005Z,-1.34
2023-02-06T16:22:49.581Z,-1.43
2023-02-06T16:25:38.553Z,-1.45
2023-02-06T16:28:25.800Z,-1.44
2023-02-06T16:31:03.073Z,-1.57
2023-02-06T16:33:51.391Z,-1.59
2023-02-06T16:36:23.111Z,-1.41
2023-02-06T16:39:03.586Z,-1.22
2023-02-06T16:41:39.008Z,-1.02
2023-02-06T16:44:14.992Z,-1.01
2023-02-06T16:46:52.282Z,-1.10
2023-02-06T16:49:25.258Z,-1.22
2023-02-06T16:51:54.172Z,-1.41
2023-02-06T16:54:32.359Z,-1.59
2023-02-06T16:57:37.730Z,-1.83
2023-02-06T17:00:31.285Z,-2.11
2023-02-06T17:02:59.430Z,-2.21
2023-02-06T17:05:28.982Z,-2.20
2023-02-06T17:07:59.061Z,-2.27
2023-02-06T17:10:27.296Z,-2.12
2023-02-06T17:12:54.076Z,-1.98
2023-02-06T17:15:31.808Z,-1.84
2023-02-06T17:17:58.435Z,-1.72
2023-02-06T17:20:38.788Z,-1.65
2023-02-06T17:23:12.552Z,-1.66
2023-02-06T17:25:47.379Z,-1.69
2023-02-06T17:28:19.570Z,-1.77
2023-02-06T17:30:53.435Z,-1.75
2023-02-06T17:33:20.632Z,-1.74
2023-02-06T17:35:52.681Z,-1.57
2023-02-06T17:38:20.062Z,-1.30
2023-02-06T17:40:53.117Z,-1.00
2023-02-06T17:43:20.123Z,-0.81
2023-02-06T17:46:07.801Z,-0.82
2023-02-06T17:48:36.723Z,-0.90
2023-02-06T17:51:05.666Z,-0.96
2023-02-06T17:53:32.417Z,-0.91
2023-02-06T17:56:11.956Z,-0.85
2023-02-06T17:58:54.377Z,-0.90
2023-02-06T18:01:24.366Z,-0.81
2023-02-06T18:03:52.153Z,-0.77
2023-02-06T18:06:21.044Z,-0.80
2023-02-06T18:11:32.688Z,-0.94
2023-02-06T18:14:02.279Z,-0.97
2023-02-06T18:16:33.870Z,-1.06
2023-02-06T18:19:01.074Z,-1.05
2023-02-06T18:21:29.366Z,-1.09
2023-02-06T18:23:57.224Z,-1.08
2023-02-06T18:26:30.553Z,-1.14
2023-02-06T18:29:05.465Z,-1.22
2023-02-06T18:31:37.459Z,-1.25
2023-02-06T18:34:09.392Z,-1.29
2023-02-06T18:36:38.176Z,-1.33
2023-02-06T18:39:06.233Z,-1.41
2023-02-06T18:41:51.432Z,-1.50
2023-02-06T18:44:18.179Z,-1.60
2023-02-06T18:46:44.978Z,-1.71
2023-02-06T18:49:14.069Z,-1.77
2023-02-06T18:51:50.509Z,-1.90
2023-02-06T18:54:17.238Z,-1.98
2023-02-06T18:56:49.938Z,-2.03
2023-02-06T18:59:16.990Z,-2.20
2023-02-06T19:01:44.592Z,-2.26
2023-02-06T19:04:13.932Z,-2.47
2023-02-06T19:06:45.568Z,-2.58
2023-02-06T19:09:15.686Z,-2.57
2023-02-06T19:11:43.186Z,-2.48
2023-02-06T19:14:17.631Z,-2.44
2023-02-06T19:16:50.930Z,-2.45
2023-02-06T19:19:18.888Z,-2.45
2023-02-06T19:21:46.075Z,-2.56
2023-02-06T19:24:20.020Z,-2.61
2023-02-06T19:26:49.109Z,-2.72
2023-02-06T19:29:34.443Z,-2.92
2023-02-06T19:32:07.299Z,-3.20
2023-02-06T19:34:37.698Z,-3.31
2023-02-06T19:37:07.719Z,-3.40
2023-02-06T20:47:24.663Z,-3.49
2023-02-06T20:49:51.644Z,-3.54
2023-02-06T20:52:19.202Z,-3.65
2023-02-06T20:54:46.111Z,-3.71
2023-02-06T20:57:13.032Z,-3.88
2023-02-06T20:59:43.816Z,-3.94
2023-02-06T21:02:11.207Z,-4.08
2023-02-06T21:04:37.887Z,-4.11
2023-02-06T21:07:10.090Z,-4.26
2023-02-06T21:09:36.884Z,-4.30
2023-02-06T21:12:04.236Z,-4.34
2023-02-06T21:14:33.165Z,-4.36
2023-02-06T21:16:59.832Z,-4.25
2023-02-06T21:19:29.516Z,-4.12
2023-02-06T21:21:56.889Z,-4.06
2023-02-06T21:24:23.745Z,-4.08
2023-02-06T21:26:53.631Z,-4.10
2023-02-06T21:29:38.252Z,-4.18
2023-02-06T21:32:13.644Z,-4.21
2023-02-06T21:34:59.620Z,-4.19
2023-02-06T21:37:26.292Z,-4.34
2023-02-06T21:39:55.731Z,-4.51
2023-02-06T21:42:26.133Z,-4.60
2023-02-06T21:44:56.099Z,-4.69
2023-02-06T21:47:22.959Z,-4.70
2023-02-06T21:49:55.739Z,-4.82
2023-02-06T21:52:24.159Z,-4.79
2023-02-06T21:54:59.947Z,-4.83
2023-02-06T21:57:26.739Z,-4.85
2023-02-06T21:59:53.479Z,-4.84
2023-02-06T22:02:20.755Z,-4.69
2023-02-06T22:04:47.485Z,-4.46
2023-02-06T22:07:14.361Z,-4.36
2023-02-06T22:09:44.297Z,-4.35
2023-02-06T22:12:10.941Z,-4.37
2023-02-06T22:14:37.735Z,-4.41
2023-02-06T22:17:04.706Z,-4.42
2023-02-06T22:19:33.829Z,-4.47
2023-02-06T22:22:01.020Z,-4.58
2023-02-06T22:24:30.616Z,-4.64
2023-02-06T22:26:57.472Z,-4.67
2023-02-06T22:29:26.733Z,-4.61
2023-02-06T22:31:56.433Z,-4.66
2023-02-06T22:34:23.165Z,-4.73
2023-02-06T22:36:53.180Z,-4.78
2023-02-06T22:39:19.990Z,-4.77
2023-02-06T22:41:48.936Z,-4.73
2023-02-06T22:44:19.339Z,-4.27
2023-02-06T22:46:55.429Z,-3.66
2023-02-06T22:49:22.420Z,-3.17
2023-02-06T22:51:57.864Z,-3.01
2023-02-06T22:54:24.860Z,-2.97
2023-02-06T22:56:54.145Z,-2.91
2023-02-06T22:59:29.202Z,-2.92
2023-02-06T23:01:59.539Z,-2.91
2023-02-06T23:04:35.436Z,-2.85
2023-02-06T23:07:07.771Z,-2.79
2023-02-06T23:09:43.556Z,-2.76
2023-02-06T23:12:11.583Z,-2.62
2023-02-06T23:14:38.394Z,-2.62
2023-02-06T23:17:05.123Z,-2.59
2023-02-06T23:19:34.826Z,-2.65
2023-02-06T23:22:01.633Z,-2.75
2023-02-06T23:24:28.453Z,-2.81
2023-02-06T23:26:55.538Z,-2.80
2023-02-06T23:29:24.267Z,-2.83
2023-02-06T23:31:53.411Z,-2.85
2023-02-06T23:34:24.321Z,-2.85
2023-02-06T23:36:55.520Z,-2.85
2023-02-06T23:39:22.493Z,-2.86
2023-02-06T23:41:52.245Z,-2.93
2023-02-06T23:44:19.386Z,-2.95
2023-02-06T23:46:47.676Z,-2.84
2023-02-06T23:49:14.811Z,-2.86
2023-02-06T23:51:47.280Z,-2.88
2023-02-06T23:54:13.988Z,-2.94
2023-02-06T23:56:49.710Z,-3.01
2023-02-06T23:59:16.413Z,-3.05
